Flight Track Log - Related Links

Times and Time Zones

All times are in EDT time to prevent confusion due to time zone crossing. See the EJA951 flight status page for this flight to view local times or setup timezone preferences in your user account.

Time Position Orientation Groundspeed Altitude Reporting Facility
EDT Latitude Longitude Course Direction KTS MPH feet Rate Location/Type
Mon 07:26:20 PM 33.9917 -118.4772 259° West 186 214 1,700  Level Los Angeles Center
Mon 07:27:22 PM 33.9803 -118.5475 259° West 228 262 4,800 2,565 Climbing Los Angeles Center
Mon 07:28:24 PM 33.9556 -118.6194 248° West 238 274 7,000 2,226 Climbing Los Angeles Center
Mon 07:29:26 PM 33.9336 -118.7267 256° West 305 351 9,400 2,565 Climbing Los Angeles Center
Mon 07:30:28 PM 33.9203 -118.8253 261° West 292 336 12,300 2,516 Climbing Los Angeles Center
Mon 07:31:30 PM 33.9225 -118.9256 272° West 297 342 14,600 2,081 Climbing Los Angeles Center
Mon 07:32:32 PM 33.9683 -119.0106 303° West 309 356 16,600 1,951 Climbing Los Angeles Center
Mon 07:33:33 PM 34.0256 -119.0903 311° West 315 362 18,600 1,951 Climbing Los Angeles Center
Mon 07:34:35 PM 34.0844 -119.1733 311° West 326 375 20,600 2,023 Climbing Los Angeles Center
Mon 07:36:28 PM 34.2042 -119.3425 311° West 347 399 24,500 1,871 Climbing Oakland Center
Mon 07:37:41 PM 34.2883 -119.4603 311° West 369 425 26,400 1,511 Climbing Los Angeles Center
Mon 07:38:43 PM 34.3589 -119.5611 310° West 390 449 27,900 1,191 Climbing Los Angeles Center
Mon 07:39:57 PM 34.4328 -119.6647 311° West 405 466 29,100 926 Climbing Los Angeles Center
Mon 07:40:59 PM 34.5286 -119.7950 312° West 430 495 30,000 435 Climbing Los Angeles Center
Mon 07:42:01 PM 34.6411 -119.9144 319° Northwest 467 537 30,000  Level Los Angeles Center
Mon 07:43:15 PM 34.7422 -120.0244 318° Northwest 485 558 30,000  Level Los Angeles Center
Mon 07:44:17 PM 34.8553 -120.1478 318° Northwest 482 555 30,000 -48 Level Los Angeles Center
Mon 07:45:19 PM 34.9528 -120.2561 318° Northwest 480 552 29,900  Descending Los Angeles Center
Mon 07:46:21 PM 35.0689 -120.3836 318° Northwest 474 545 30,000  Climbing Los Angeles Center
Mon 07:47:23 PM 35.1661 -120.4914 318° Northwest 476 548 29,900 -48 Descending Los Angeles Center
Mon 07:48:25 PM 35.2636 -120.6008 318° Northwest 479 551 29,900 48 Level Los Angeles Center
Mon 07:49:27 PM 35.3611 -120.7111 317° Northwest 477 549 30,000 49 Climbing Los Angeles Center
Mon 07:50:28 PM 35.4592 -120.8197 318° Northwest 476 548 30,000 -49 Level Los Angeles Center
Mon 07:51:30 PM 35.5581 -120.9267 319° Northwest 474 545 29,900  Descending Los Angeles Center
Mon 07:52:32 PM 35.6864 -121.0378 325° Northwest 475 547 30,000 77 Climbing Los Angeles Center
Mon 07:52:48 PM 35.7069 -121.0561 324° Northwest 476 548 30,000  Level Oakland Center
Mon 07:53:49 PM 35.8150 -121.1528 324° Northwest 475 547 30,000  Level Oakland Center
Mon 07:54:50 PM 35.9253 -121.2447 326° Northwest 476 548 30,000  Level Oakland Center
Mon 07:55:51 PM 36.0328 -121.3422 324° Northwest 478 550 30,000 -49 Level Oakland Center
Mon 07:56:52 PM 36.1417 -121.4372 325° Northwest 479 551 29,900 -927 Descending Oakland Center
Mon 07:57:54 PM 36.2717 -121.5511 325° Northwest 478 550 28,100 -2,098 Descending Oakland Center
Mon 07:58:55 PM 36.3786 -121.6456 325° Northwest 474 545 25,600 -2,488 Descending Oakland Center
Mon 07:59:16 PM 36.4167 -121.6833 321° Northwest 451 519 24,700 -2,276 Descending Northern Cal TRACON
Mon 08:00:22 PM 36.5333 -121.7667 330° Northwest 435 501 22,300 -2,238 Descending Northern Cal TRACON
Mon 08:01:22 PM 36.6167 -121.8500 321° Northwest 474 545 20,000 -2,211 Descending Northern Cal TRACON
Mon 08:02:16 PM 36.7167 -121.9333 326° Northwest 438 504 18,100 -1,947 Descending Northern Cal TRACON
Mon 08:03:16 PM 36.8167 -121.9833 338° Northwest 411 473 16,300 -1,850 Descending Northern Cal TRACON
Mon 08:04:16 PM 36.9333 -122.0167 347° North 403 464 14,400 -1,857 Descending Northern Cal TRACON
Mon 08:05:22 PM 37.0333 -122.0500 345° North 377 434 12,400 -1,762 Descending Northern Cal TRACON
Mon 08:06:22 PM 37.1333 -122.0667 352° North 322 371 10,700 -1,456 Descending Northern Cal TRACON
Mon 08:07:05 PM 37.1861 -122.0794 349° North 307 353 9,900 -1,327 Descending Oakland Center
Mon 08:08:06 PM 37.2628 -122.1003 348° North 284 327 8,400 -1,610 Descending Oakland Center
Mon 08:09:08 PM 37.3386 -122.1203 348° North 279 321 6,600 -1,707 Descending Oakland Center
Mon 08:10:09 PM 37.4106 -122.1392 348° North 268 308 4,900 -1,328 Descending Oakland Center
Mon 08:11:10 PM 37.4817 -122.1614 346° North 264 304 3,900 -1,131 Descending Oakland Center
Mon 08:12:11 PM 37.5511 -122.1931 340° North 271 312 2,600 -1,268 Descending Oakland Center
Mon 08:13:13 PM 37.5775 -122.2747 292° West 259 298 1,300 -1,122 Descending Oakland Center
Mon 08:14:14 PM 37.6042 -122.3386 298° West 202 232 300 -541 Descending Oakland Center
Mon 08:15:15 PM 37.6214 -122.3836 296° West 192 221 200 -98 Descending Oakland Center

Login

Don't have an account? Register now (free) for customized features, flight alerts, and more!